createdAt,value
2017-11-11T00:04:43.011Z,1005.7
2017-11-11T00:14:56.941Z,1005.7
2017-11-11T00:25:11.421Z,1005.7
2017-11-11T00:35:26.780Z,1005.7
2017-11-11T00:45:41.540Z,1005.6
2017-11-11T00:55:55.162Z,1005.6
2017-11-11T01:06:10.705Z,1005.7
2017-11-11T01:16:25.814Z,1005.5
2017-11-11T01:26:39.693Z,1005.4
2017-11-11T01:36:53.537Z,1005.3
2017-11-11T01:47:07.239Z,1005.2
2017-11-11T01:57:21.038Z,1004.9
2017-11-11T02:07:34.830Z,1004.8
2017-11-11T02:17:49.452Z,1004.8
2017-11-11T02:28:05.020Z,1004.6
2017-11-11T02:38:18.838Z,1004.6
2017-11-11T02:48:33.725Z,1004.9
2017-11-11T02:58:48.849Z,1004.6
2017-11-11T03:09:02.578Z,1004.5
2017-11-11T03:19:16.580Z,1004.4
2017-11-11T03:29:30.827Z,1004.3
2017-11-11T03:39:45.253Z,1004.1
2017-11-11T03:50:00.418Z,1003.9
2017-11-11T04:00:14.671Z,1003.8
2017-11-11T04:10:28.819Z,1003.7
2017-11-11T04:20:44.403Z,1003.7
2017-11-11T04:30:59.976Z,1003.6
2017-11-11T04:41:13.997Z,1003.7
2017-11-11T04:51:29.477Z,1003.8
2017-11-11T05:01:42.995Z,1003.5
2017-11-11T05:11:57.915Z,1003.4
2017-11-11T05:22:13.219Z,1003.2
2017-11-11T05:32:27.140Z,1003.2
2017-11-11T05:42:41.920Z,1003
2017-11-11T16:15:19.395Z,999.2
2017-11-11T16:25:32.683Z,999.4
2017-11-11T16:35:46.393Z,999.6
2017-11-11T16:46:00.766Z,999.6
2017-11-11T16:56:14.683Z,999.6
2017-11-11T17:06:29.431Z,999.7
2017-11-11T17:16:44.070Z,999.8
2017-11-11T17:26:58.366Z,999.9
2017-11-11T17:37:12.323Z,999.9
2017-11-11T17:47:26.572Z,1000
2017-11-11T17:57:41.455Z,1000
2017-11-11T18:07:55.969Z,1000.2
2017-11-11T18:18:09.599Z,1000.2
2017-11-11T18:28:23.875Z,1000.3
2017-11-11T18:38:39.084Z,1000.5
2017-11-11T18:48:53.689Z,1000.5
2017-11-11T18:59:07.966Z,1000.5
2017-11-11T19:09:22.607Z,1000.7
2017-11-11T19:19:37.323Z,1000.8
2017-11-11T19:29:52.400Z,1000.9
2017-11-11T19:40:07.513Z,1001
2017-11-11T19:50:20.943Z,1001
2017-11-11T20:00:35.926Z,1001
2017-11-11T20:10:49.268Z,1001
2017-11-11T20:21:03.629Z,1001.1
2017-11-11T20:31:18.393Z,1001.2
2017-11-11T20:41:33.068Z,1001.2
2017-11-11T20:51:46.523Z,1001.3
2017-11-11T21:02:01.183Z,1001.3
2017-11-11T21:12:14.635Z,1001.4
2017-11-11T21:22:28.029Z,1001.5
2017-11-11T21:32:42.725Z,1001.5
2017-11-11T21:42:56.278Z,1001.6
2017-11-11T21:53:09.486Z,1001.5
2017-11-11T22:03:23.395Z,1001.5
2017-11-11T22:13:38.184Z,1001.5
2017-11-11T22:23:52.343Z,1001.5
2017-11-11T22:34:07.365Z,1001.5
2017-11-11T22:44:20.792Z,1001.5
2017-11-11T22:54:34.998Z,1001.4
2017-11-11T23:04:49.591Z,1001.5
2017-11-11T23:15:04.547Z,1001.4
2017-11-11T23:25:19.700Z,1001.3
2017-11-11T23:35:33.939Z,1001.3
2017-11-11T23:45:47.559Z,1001.2
2017-11-11T23:56:02.194Z,1001.1
